createdAt,value
2019-02-22T00:03:07.529Z,16.87
2019-02-22T00:08:12.933Z,8.85
2019-02-22T00:13:18.293Z,13.93
2019-02-22T00:18:23.646Z,11.67
2019-02-22T00:23:29.201Z,10.20
2019-02-22T00:28:34.609Z,10.57
2019-02-22T00:33:39.977Z,9.67
2019-02-22T00:38:45.352Z,9.50
2019-02-22T00:43:50.737Z,14.50
2019-02-22T00:48:56.070Z,10.87
2019-02-22T00:54:01.415Z,13.07
2019-02-22T00:59:06.660Z,5.30
2019-02-22T01:04:11.980Z,8.93
2019-02-22T01:09:17.523Z,7.43
2019-02-22T01:14:23.061Z,8.93
2019-02-22T01:19:28.412Z,8.60
2019-02-22T01:24:33.857Z,8.90
2019-02-22T01:29:39.166Z,10.33
2019-02-22T01:34:44.554Z,9.00
2019-02-22T01:39:49.943Z,7.70
2019-02-22T01:44:55.207Z,7.40
2019-02-22T01:50:00.490Z,11.90
2019-02-22T01:55:05.846Z,9.27
2019-02-22T02:00:12.620Z,11.73
2019-02-22T02:05:18.055Z,9.63
2019-02-22T02:10:23.451Z,12.20
2019-02-22T02:15:28.890Z,9.97
2019-02-22T02:20:34.150Z,12.03
2019-02-22T02:25:39.513Z,7.27
2019-02-22T02:30:44.906Z,6.63
2019-02-22T02:35:50.210Z,7.03
2019-02-22T02:41:08.090Z,12.10
2019-02-22T02:46:02.454Z,11.27
2019-02-22T02:51:07.906Z,8.97
2019-02-22T02:56:13.248Z,8.90
2019-02-22T03:01:18.475Z,7.45
2019-02-22T03:06:32.454Z,9.75
2019-02-22T03:11:37.846Z,11.37
2019-02-22T03:16:43.102Z,11.57
2019-02-22T03:21:48.461Z,7.93
2019-02-22T03:26:53.799Z,10.23
2019-02-22T03:31:59.183Z,7.53
2019-02-22T03:37:04.612Z,11.93
2019-02-22T03:42:09.997Z,8.20
2019-02-22T03:47:15.296Z,10.70
2019-02-22T03:52:26.007Z,7.13
2019-02-22T03:57:31.322Z,8.17
2019-02-22T04:02:37.551Z,10.20
2019-02-22T04:07:42.876Z,13.47
2019-02-22T04:12:48.086Z,16.23
2019-02-22T04:17:53.415Z,12.93
2019-02-22T04:22:58.790Z,10.93
2019-02-22T04:28:04.072Z,13.37
2019-02-22T04:33:09.474Z,13.80
2019-02-22T04:38:14.840Z,8.47
2019-02-22T04:43:20.189Z,13.53
2019-02-22T04:48:25.573Z,10.83
2019-02-22T04:53:30.841Z,13.13
2019-02-22T04:58:37.231Z,12.60
2019-02-22T05:03:42.602Z,8.88
2019-02-22T05:08:48.411Z,7.03
2019-02-22T05:13:53.696Z,9.70
2019-02-22T05:18:58.990Z,13.23
2019-02-22T05:24:04.380Z,9.60
2019-02-22T05:29:09.655Z,12.47
2019-02-22T05:34:14.975Z,10.47
2019-02-22T05:39:20.285Z,14.00
2019-02-22T05:44:25.640Z,16.13
2019-02-22T05:49:30.981Z,13.53
2019-02-22T05:54:37.327Z,14.23
2019-02-22T05:59:42.643Z,12.20
2019-02-22T06:04:48.033Z,11.05
2019-02-22T06:09:53.407Z,16.73
2019-02-22T06:14:58.752Z,19.30
2019-02-22T06:20:04.190Z,17.93
2019-02-22T06:25:09.632Z,20.00
2019-02-22T06:30:15.020Z,18.70
2019-02-22T06:35:20.350Z,17.53
2019-02-22T06:40:25.621Z,18.93
2019-02-22T06:45:30.945Z,17.13
2019-02-22T06:50:37.375Z,18.97
2019-02-22T06:55:42.661Z,19.17
2019-02-22T07:00:48.194Z,21.77
2019-02-22T07:05:53.570Z,19.67
2019-02-22T07:11:15.294Z,21.37
2019-02-22T07:16:20.694Z,22.03
2019-02-22T07:21:25.975Z,16.27
2019-02-22T07:26:31.278Z,21.87
2019-02-22T07:31:36.792Z,20.80
2019-02-22T07:36:42.080Z,22.87
2019-02-22T07:41:50.015Z,22.07
2019-02-22T07:46:55.469Z,22.95
2019-02-22T07:52:00.826Z,22.80
2019-02-22T07:57:06.204Z,28.40
2019-02-22T08:02:11.492Z,20.77
2019-02-22T08:07:16.996Z,25.77
2019-02-22T08:12:22.316Z,27.90
2019-02-22T08:17:27.681Z,31.77
2019-02-22T08:22:32.953Z,32.47
2019-02-22T08:27:40.206Z,35.28
2019-02-22T08:32:46.353Z,34.43
2019-02-22T08:37:51.790Z,28.47
2019-02-22T08:42:57.222Z,31.83
2019-02-22T08:48:02.506Z,35.90
2019-02-22T08:53:07.905Z,26.00
2019-02-22T08:58:13.354Z,25.43
2019-02-22T09:03:18.759Z,27.43
2019-02-22T09:08:24.106Z,22.17
2019-02-22T09:13:29.522Z,19.80
2019-02-22T09:18:34.834Z,22.60
2019-02-22T09:23:40.165Z,18.90
2019-02-22T09:28:45.805Z,20.92
2019-02-22T09:33:51.134Z,19.37
2019-02-22T09:38:56.605Z,21.80
2019-02-22T09:44:01.936Z,19.53
2019-02-22T09:49:08.218Z,30.30
2019-02-22T09:54:13.622Z,22.20
2019-02-22T09:59:19.114Z,22.23
2019-02-22T10:04:24.523Z,24.30
2019-02-22T10:09:29.854Z,24.23
2019-02-22T10:14:35.135Z,30.13
2019-02-22T10:19:40.798Z,22.93
2019-02-22T10:24:46.172Z,25.13
2019-02-22T10:29:52.762Z,30.12
2019-02-22T10:34:58.191Z,35.33
2019-02-22T10:40:03.845Z,27.73
2019-02-22T10:45:09.800Z,28.57
2019-02-22T10:50:15.558Z,31.20
2019-02-22T10:55:21.051Z,32.17
2019-02-22T11:00:26.451Z,36.10
2019-02-22T11:05:31.992Z,39.97
2019-02-22T11:10:38.452Z,37.53
2019-02-22T11:15:43.931Z,41.07
2019-02-22T11:20:49.360Z,35.25
2019-02-22T11:25:54.805Z,39.40
2019-02-22T11:31:00.251Z,37.30
2019-02-22T11:36:05.694Z,31.90
2019-02-22T11:41:11.392Z,38.37
2019-02-22T11:46:16.858Z,30.23
2019-02-22T11:51:22.291Z,31.57
2019-02-22T11:56:27.762Z,33.37
2019-02-22T12:01:33.172Z,28.77
2019-02-22T12:06:38.551Z,32.13
2019-02-22T12:11:43.952Z,29.92
2019-02-22T12:16:49.332Z,26.25
2019-02-22T12:21:54.759Z,28.00
2019-02-22T12:27:00.352Z,26.87
2019-02-22T12:32:05.812Z,28.30
2019-02-22T12:37:11.192Z,24.13
2019-02-22T12:42:16.612Z,31.33
2019-02-22T12:47:22.054Z,29.60
2019-02-22T12:52:27.451Z,25.47
2019-02-22T12:57:32.832Z,26.47
2019-02-22T13:02:38.411Z,34.97
2019-02-22T13:07:43.912Z,25.33
2019-02-22T13:12:49.352Z,32.43
2019-02-22T13:17:58.154Z,28.03
2019-02-22T13:23:03.635Z,31.77
2019-02-22T13:28:09.291Z,29.80
2019-02-22T13:33:14.878Z,26.20
2019-02-22T13:38:20.313Z,28.30
2019-02-22T13:43:28.092Z,26.90
2019-02-22T13:48:33.638Z,23.83
2019-02-22T13:53:39.237Z,22.50
2019-02-22T13:58:44.911Z,30.62
2019-02-22T14:03:50.452Z,26.15
2019-02-22T14:08:56.852Z,26.80
2019-02-22T14:14:02.256Z,29.67
2019-02-22T14:19:07.932Z,28.27
2019-02-22T14:24:13.372Z,25.97
2019-02-22T14:29:18.987Z,23.13
2019-02-22T14:34:24.594Z,26.23
2019-02-22T14:39:30.146Z,29.57
2019-02-22T14:44:35.592Z,28.97
2019-02-22T14:49:41.178Z,30.70
2019-02-22T14:54:46.557Z,27.60
2019-02-22T14:59:51.983Z,30.33
2019-02-22T15:04:57.397Z,35.17
2019-02-22T15:10:05.174Z,26.83
2019-02-22T15:15:11.838Z,27.73
2019-02-22T15:20:17.353Z,31.77
2019-02-22T15:25:22.939Z,22.40
2019-02-22T15:30:28.439Z,28.13
2019-02-22T15:35:35.076Z,25.33
2019-02-22T15:40:40.630Z,27.73
2019-02-22T15:45:47.113Z,26.60
2019-02-22T15:50:53.254Z,26.60
2019-02-22T15:55:58.801Z,23.77
2019-02-22T16:01:04.191Z,23.37
2019-02-22T16:06:12.279Z,23.00
2019-02-22T16:11:17.719Z,23.07
2019-02-22T16:16:23.658Z,26.87
2019-02-22T16:21:29.198Z,28.17
2019-02-22T16:26:34.634Z,27.77
2019-02-22T16:31:40.173Z,27.53
2019-02-22T16:36:45.606Z,29.03
2019-02-22T16:41:51.226Z,25.97
2019-02-22T16:46:57.712Z,24.12
2019-02-22T16:52:03.777Z,28.17
2019-02-22T16:57:09.452Z,26.73
2019-02-22T17:02:16.159Z,29.70
2019-02-22T17:07:21.679Z,30.50
2019-02-22T17:12:27.160Z,29.20
2019-02-22T17:17:32.638Z,24.33
2019-02-22T17:22:38.173Z,30.70
2019-02-22T17:27:43.781Z,26.80
2019-02-22T17:32:49.274Z,21.20
2019-02-22T17:37:54.880Z,27.60
2019-02-22T17:43:00.178Z,25.07
2019-02-22T17:48:05.818Z,26.10
2019-02-22T17:53:11.386Z,27.60
2019-02-22T17:58:23.958Z,26.23
2019-02-22T18:03:24.186Z,25.30
2019-02-22T18:08:29.879Z,27.93
2019-02-22T18:13:35.491Z,29.83
2019-02-22T18:18:40.939Z,28.53
2019-02-22T18:23:46.446Z,28.63
2019-02-22T18:28:51.848Z,26.57
2019-02-22T18:33:57.247Z,31.77
2019-02-22T18:44:19.980Z,24.90
2019-02-22T18:49:25.480Z,21.03
2019-02-22T18:54:30.920Z,25.50
2019-02-22T18:59:36.421Z,33.53
2019-02-22T19:04:42.020Z,29.30
2019-02-22T19:09:47.502Z,28.77
2019-02-22T19:14:52.880Z,32.17
2019-02-22T19:19:58.341Z,33.33
2019-02-22T19:25:03.941Z,33.03
2019-02-22T19:30:12.219Z,36.93
2019-02-22T19:35:19.420Z,34.53
2019-02-22T19:40:25.030Z,34.17
2019-02-22T19:45:30.554Z,30.83
2019-02-22T19:50:41.395Z,36.00
2019-02-22T19:55:43.300Z,35.77
2019-02-22T20:00:48.683Z,37.50
2019-02-22T20:05:54.139Z,34.37
2019-02-22T20:10:59.634Z,34.43
2019-02-22T20:16:06.071Z,34.17
2019-02-22T20:21:11.593Z,34.47
2019-02-22T20:26:18.057Z,33.97
2019-02-22T20:31:23.328Z,34.47
2019-02-22T20:36:28.919Z,37.58
2019-02-22T20:41:34.209Z,34.65
2019-02-22T20:46:40.182Z,36.08
2019-02-22T20:51:45.623Z,34.53
2019-02-22T20:56:50.882Z,32.83
2019-02-22T21:01:57.347Z,34.37
2019-02-22T21:07:03.948Z,31.87
2019-02-22T21:12:09.358Z,37.63
2019-02-22T21:17:14.852Z,35.23
2019-02-22T21:22:20.337Z,38.90
2019-02-22T21:27:25.648Z,40.60
2019-02-22T21:32:30.994Z,42.53
2019-02-22T21:37:36.461Z,39.78
2019-02-22T21:42:41.884Z,41.63
2019-02-22T21:47:54.848Z,37.93
2019-02-22T21:52:54.322Z,42.83
2019-02-22T21:57:59.873Z,38.80
2019-02-22T22:03:05.295Z,41.60
2019-02-22T22:08:10.593Z,39.90
2019-02-22T22:13:15.939Z,38.67
2019-02-22T22:18:22.172Z,38.10
2019-02-22T22:23:27.505Z,38.17
2019-02-22T22:28:32.948Z,32.80
2019-02-22T22:33:38.313Z,32.13
2019-02-22T22:38:43.819Z,39.90
2019-02-22T22:43:49.192Z,34.33
2019-02-22T22:48:54.679Z,32.27
2019-02-22T22:54:00.218Z,37.35
2019-02-22T22:59:06.550Z,31.40
2019-02-22T23:04:11.930Z,28.40
2019-02-22T23:09:19.366Z,26.30
2019-02-22T23:14:27.733Z,28.53
2019-02-22T23:19:33.159Z,30.63
2019-02-22T23:24:38.463Z,28.50
2019-02-22T23:29:43.828Z,28.63
2019-02-22T23:34:49.138Z,26.40
2019-02-22T23:39:54.548Z,22.60
2019-02-22T23:45:00.352Z,18.37
2019-02-22T23:50:05.982Z,16.27
2019-02-22T23:55:11.369Z,20.43
